Time;durP1;ratioP1;P1;durP2;ratioP2;P2;SDS_P1;SDS_P2;PMS_P1;PMS_P2;Temp;Humidity;BMP_temperature;BMP_pressure;BME280_temperature;BME280_humidity;BME280_pressure;Samples;Min_cycle;Max_cycle;Signal;HPM_P1;HPM_P2
2021/12/25 00:00:53;;;;;;;;;;;0.80;99.90;;;;;;4957956;28;20393;-77
2021/12/25 00:03:19;;;;;;;;;;;0.80;99.90;;;;;;4973575;28;19926;-77
2021/12/25 00:05:45;;;;;;;;;;;0.80;99.90;;;;;;4956831;28;20302;-77
2021/12/25 00:08:11;;;;;;;;;;;0.80;99.90;;;;;;4957825;28;20437;-77
2021/12/25 00:10:36;;;;;;;;;;;0.70;99.90;;;;;;4957065;28;19926;-77
2021/12/25 00:13:02;;;;;;;;;;;0.70;99.90;;;;;;4973399;28;20310;-77
2021/12/25 00:15:28;;;;;;;;;;;0.70;99.90;;;;;;4973465;28;19972;-77
2021/12/25 00:17:53;;;;;;;;;;;0.70;99.90;;;;;;4973132;28;19937;-77
2021/12/25 00:20:19;;;;;;;;;;;0.60;99.90;;;;;;4974040;28;19922;-77
2021/12/25 00:22:44;;;;;;;;;;;0.60;99.90;;;;;;4973373;28;19984;-77
2021/12/25 00:25:10;;;;;;;;;;;0.60;99.90;;;;;;4973403;28;19922;-77
2021/12/25 00:27:52;;;;;;;;;;;0.60;99.90;;;;;;4973579;28;20390;-77
2021/12/25 00:30:43;;;;;;;;;;;0.60;99.90;;;;;;4973445;28;19929;-76
2021/12/25 00:33:29;;;;;;;;;;;0.60;99.90;;;;;;4972574;28;19922;-77
2021/12/25 00:35:51;;;;;;;;;;;0.60;99.90;;;;;;4972794;28;19930;-77
2021/12/25 00:38:16;;;;;;;;;;;0.60;99.90;;;;;;4972622;28;19933;-77
2021/12/25 00:40:42;;;;;;;;;;;0.50;99.90;;;;;;4973184;28;20457;-77
2021/12/25 00:43:07;;;;;;;;;;;0.50;99.90;;;;;;4973311;28;20335;-77
2021/12/25 00:45:33;;;;;;;;;;;0.60;99.90;;;;;;4956653;28;20008;-76
2021/12/25 00:47:58;;;;;;;;;;;0.60;99.90;;;;;;4956730;28;19922;-76
2021/12/25 00:50:24;;;;;;;;;;;0.50;99.90;;;;;;4957112;28;19929;-77
2021/12/25 00:52:49;;;;;;;;;;;0.50;99.90;;;;;;4972777;28;20394;-77
2021/12/25 00:55:14;;;;;;;;;;;0.50;99.90;;;;;;4972716;28;19922;-77
2021/12/25 00:57:40;;;;;;;;;;;0.50;99.90;;;;;;4972940;28;19922;-77
2021/12/25 01:00:09;;;;;;;;;;;0.40;99.90;;;;;;4956794;28;19926;-76
2021/12/25 01:02:36;;;;;;;;;;;0.40;99.90;;;;;;4972334;28;20052;-76
2021/12/25 01:05:02;;;;;;;;;;;0.40;99.90;;;;;;4989019;28;20002;-77
2021/12/25 01:07:27;;;;;;;;;;;0.40;99.90;;;;;;4972686;28;19922;-77
2021/12/25 01:09:52;;;;;;;;;;;0.30;99.90;;;;;;4956624;28;20310;-77
2021/12/25 01:12:18;;;;;;;;;;;0.20;99.90;;;;;;4956444;28;20129;-77
2021/12/25 01:14:53;;;;;;;;;;;0.20;99.90;;;;;;4956251;28;19922;-77
2021/12/25 01:25:25;;;;;;;;;;;0.00;99.90;;;;;;4972294;28;19933;-77
2021/12/25 01:30:34;;;;;;;;;;;-0.10;99.90;;;;;;4972605;28;19929;-76
2021/12/25 01:33:27;;;;;;;;;;;-0.10;99.90;;;;;;4972584;28;20290;-76
2021/12/25 01:49:10;;;;;;;;;;;-0.30;99.90;;;;;;4972523;28;19948;-76
2021/12/25 01:51:35;;;;;;;;;;;-0.30;99.90;;;;;;4972301;28;19922;-76
2021/12/25 01:54:01;;;;;;;;;;;-0.40;99.90;;;;;;4955421;28;19926;-76
2021/12/25 01:56:26;;;;;;;;;;;-0.40;99.90;;;;;;4971757;28;19922;-76
2021/12/25 01:58:52;;;;;;;;;;;-0.50;99.90;;;;;;4972192;28;19930;-76
2021/12/25 02:01:18;;;;;;;;;;;-0.50;99.90;;;;;;4972330;28;19929;-76
2021/12/25 02:03:44;;;;;;;;;;;-0.60;99.90;;;;;;4972122;28;20291;-76
2021/12/25 02:06:11;;;;;;;;;;;-0.60;99.90;;;;;;4955719;28;19922;-76
2021/12/25 02:08:37;;;;;;;;;;;-0.60;99.90;;;;;;4972086;28;20409;-76
2021/12/25 02:11:03;;;;;;;;;;;-0.70;99.90;;;;;;4955713;28;20057;-76
2021/12/25 02:13:29;;;;;;;;;;;-0.70;99.90;;;;;;4955995;28;19930;-76
2021/12/25 02:15:56;;;;;;;;;;;-0.80;99.90;;;;;;4955455;28;19925;-76
2021/12/25 02:21:34;;;;;;;;;;;-0.80;99.90;;;;;;4971753;28;20020;-76
2021/12/25 02:23:36;;;;;;;;;;;-0.90;99.90;;;;;;4966560;28;19930;-76
2021/12/25 02:26:03;;;;;;;;;;;-0.90;99.90;;;;;;4971554;28;20302;-76
2021/12/25 02:28:29;;;;;;;;;;;-1.00;99.90;;;;;;4971871;28;19960;-76
2021/12/25 02:30:56;;;;;;;;;;;-1.00;99.90;;;;;;4959550;28;20375;-76
2021/12/25 02:33:23;;;;;;;;;;;-1.00;99.90;;;;;;4958799;28;20302;-76
2021/12/25 02:35:48;;;;;;;;;;;-1.10;99.90;;;;;;4975661;28;20323;-76
2021/12/25 02:38:14;;;;;;;;;;;-1.10;99.90;;;;;;4975526;28;19980;-76
2021/12/25 02:40:40;;;;;;;;;;;-1.10;99.90;;;;;;4975418;28;19922;-76
2021/12/25 02:43:05;;;;;;;;;;;-1.20;99.90;;;;;;4975334;28;19922;-76
2021/12/25 02:45:31;;;;;;;;;;;-1.20;99.90;;;;;;4959146;28;19922;-75
2021/12/25 02:47:57;;;;;;;;;;;-1.20;99.90;;;;;;4975110;28;19941;-76
2021/12/25 02:50:27;;;;;;;;;;;-1.20;99.90;;;;;;4975414;28;19926;-75
2021/12/25 02:52:53;;;;;;;;;;;-1.30;99.90;;;;;;4959183;28;19933;-75
2021/12/25 02:55:19;;;;;;;;;;;-1.30;99.90;;;;;;4975082;28;19929;-75
2021/12/25 02:57:49;;;;;;;;;;;-1.40;99.90;;;;;;4975011;28;19922;-75
2021/12/25 03:00:16;;;;;;;;;;;-1.40;99.90;;;;;;4975109;28;20097;-75
2021/12/25 03:02:42;;;;;;;;;;;-1.40;99.90;;;;;;4971684;28;19923;-75
2021/12/25 03:05:07;;;;;;;;;;;-1.40;99.90;;;;;;4980587;28;19922;-75
2021/12/25 03:07:33;;;;;;;;;;;-1.50;99.90;;;;;;4975415;28;20390;-75
2021/12/25 03:09:58;;;;;;;;;;;-1.50;99.90;;;;;;4959135;28;20009;-75
2021/12/25 03:12:33;;;;;;;;;;;-1.60;99.90;;;;;;4974600;28;19922;-76
2021/12/25 03:15:12;;;;;;;;;;;-1.60;99.90;;;;;;4974691;28;20013;-75
2021/12/25 03:17:38;;;;;;;;;;;-1.60;99.90;;;;;;4958843;28;19922;-75
2021/12/25 03:20:04;;;;;;;;;;;-1.60;99.90;;;;;;4958655;28;19926;-75
2021/12/25 03:22:30;;;;;;;;;;;-1.60;99.90;;;;;;4975146;28;20345;-75
2021/12/25 03:24:55;;;;;;;;;;;-1.70;99.90;;;;;;4958095;28;20073;-75
2021/12/25 03:27:21;;;;;;;;;;;-1.70;99.90;;;;;;4974481;28;20426;-77
2021/12/25 03:29:46;;;;;;;;;;;-1.70;99.90;;;;;;4974664;28;19922;-75
2021/12/25 03:32:11;;;;;;;;;;;-1.70;99.90;;;;;;4974587;28;19926;-75
2021/12/25 03:34:37;;;;;;;;;;;-1.80;99.90;;;;;;4974221;28;19922;-75
2021/12/25 03:37:03;;;;;;;;;;;-1.80;99.90;;;;;;4958459;28;19926;-75
2021/12/25 03:39:29;;;;;;;;;;;-1.80;99.90;;;;;;4974170;28;19926;-75
2021/12/25 03:41:58;;;;;;;;;;;-1.80;99.90;;;;;;4957478;28;20494;-75
2021/12/25 03:44:28;;;;;;;;;;;-1.80;99.90;;;;;;4957873;28;19977;-75
2021/12/25 03:46:58;;;;;;;;;;;-1.80;99.90;;;;;;4974867;28;20286;-75
2021/12/25 03:49:35;;;;;;;;;;;-1.80;99.90;;;;;;4974085;28;19922;-75
2021/12/25 03:58:05;;;;;;;;;;;-1.90;99.90;;;;;;4974179;28;20405;-75
2021/12/25 04:00:28;;;;;;;;;;;-2.00;99.90;;;;;;4972686;28;19933;-75
2021/12/25 04:02:55;;;;;;;;;;;-2.00;99.90;;;;;;4973772;28;20024;-75
2021/12/25 04:05:26;;;;;;;;;;;-2.10;99.90;;;;;;4973598;28;19922;-75
2021/12/25 04:08:09;;;;;;;;;;;-2.20;99.90;;;;;;4957943;28;19922;-75
2021/12/25 04:10:36;;;;;;;;;;;-2.10;99.90;;;;;;4973916;28;19922;-75
2021/12/25 04:13:03;;;;;;;;;;;-2.10;99.90;;;;;;4973630;28;19972;-75
2021/12/25 04:15:29;;;;;;;;;;;-2.20;99.90;;;;;;4957115;28;19922;-75
2021/12/25 04:17:54;;;;;;;;;;;-2.10;99.90;;;;;;4973958;28;19928;-75
2021/12/25 04:20:20;;;;;;;;;;;-2.10;99.90;;;;;;4957945;28;19980;-75
2021/12/25 04:22:52;;;;;;;;;;;-2.20;99.90;;;;;;4973848;28;20371;-75
2021/12/25 04:25:23;;;;;;;;;;;-2.30;99.90;;;;;;4973485;28;20330;-75
2021/12/25 04:27:49;;;;;;;;;;;-2.30;99.90;;;;;;4957731;28;19969;-75
2021/12/25 04:30:45;;;;;;;;;;;-2.40;99.90;;;;;;4957028;28;19961;-75
2021/12/25 05:01:45;;;;;;;;;;;-2.60;99.90;;;;;;4972411;28;20297;-75
2021/12/25 05:03:39;;;;;;;;;;;-2.80;99.90;;;;;;4972551;28;20048;-75
2021/12/25 05:06:05;;;;;;;;;;;-2.80;99.90;;;;;;4972961;28;19929;-75
2021/12/25 05:08:30;;;;;;;;;;;-2.90;99.90;;;;;;4972969;28;19922;-75
2021/12/25 05:10:57;;;;;;;;;;;-2.90;99.90;;;;;;4973105;28;20009;-76
2021/12/25 05:13:23;;;;;;;;;;;-2.90;99.90;;;;;;4972835;28;20060;-76
2021/12/25 05:15:48;;;;;;;;;;;-2.90;99.90;;;;;;4972740;28;19941;-76
2021/12/25 05:18:14;;;;;;;;;;;-2.90;99.90;;;;;;4972578;28;19934;-76
2021/12/25 05:20:39;;;;;;;;;;;-3.00;99.90;;;;;;4972576;28;19922;-76
2021/12/25 05:23:05;;;;;;;;;;;-3.00;99.90;;;;;;4972408;28;19945;-76
2021/12/25 05:25:32;;;;;;;;;;;-3.00;99.90;;;;;;4972196;28;20013;-76
2021/12/25 05:27:59;;;;;;;;;;;-3.10;99.90;;;;;;4972564;28;19923;-76
2021/12/25 05:30:25;;;;;;;;;;;-3.00;99.90;;;;;;4956421;28;19922;-76
2021/12/25 05:32:50;;;;;;;;;;;-3.00;99.90;;;;;;4972191;28;19929;-76
2021/12/25 05:35:16;;;;;;;;;;;-3.10;99.90;;;;;;4955933;28;19926;-76
2021/12/25 05:37:41;;;;;;;;;;;-3.10;99.90;;;;;;4972417;28;19933;-76
2021/12/25 05:40:07;;;;;;;;;;;-3.10;99.90;;;;;;4955894;28;19933;-76
2021/12/25 05:42:32;;;;;;;;;;;-3.10;99.90;;;;;;4956168;28;19922;-76
2021/12/25 05:44:59;;;;;;;;;;;-3.20;99.90;;;;;;4971916;28;19929;-76
2021/12/25 05:47:25;;;;;;;;;;;-3.20;99.90;;;;;;4955998;28;19922;-76
2021/12/25 05:49:50;;;;;;;;;;;-3.10;99.90;;;;;;4956002;28;19923;-76
2021/12/25 05:52:16;;;;;;;;;;;-3.10;99.90;;;;;;4955987;28;19923;-76
2021/12/25 05:54:41;;;;;;;;;;;-3.10;99.90;;;;;;4955248;28;19926;-76
2021/12/25 05:57:07;;;;;;;;;;;-3.20;99.90;;;;;;4972090;28;20276;-76
2021/12/25 05:59:32;;;;;;;;;;;-3.20;99.90;;;;;;4971857;28;19973;-77
2021/12/25 06:01:58;;;;;;;;;;;-3.10;99.90;;;;;;4972036;28;19922;-76
2021/12/25 06:04:23;;;;;;;;;;;-3.20;99.90;;;;;;4954849;28;19922;-76
2021/12/25 06:06:49;;;;;;;;;;;-3.30;99.90;;;;;;4971604;28;20417;-76
2021/12/25 06:09:14;;;;;;;;;;;-3.20;99.90;;;;;;4955938;28;19926;-76
2021/12/25 06:11:40;;;;;;;;;;;-3.30;99.90;;;;;;4971781;28;19926;-77
2021/12/25 06:14:11;;;;;;;;;;;-3.20;99.90;;;;;;4955913;28;19922;-76
2021/12/25 06:16:38;;;;;;;;;;;-3.30;99.90;;;;;;4955821;28;19945;-77
2021/12/25 06:19:04;;;;;;;;;;;-3.30;99.90;;;;;;4971679;28;19965;-76
2021/12/25 06:21:29;;;;;;;;;;;-3.30;99.90;;;;;;4955771;28;20009;-75
2021/12/25 06:23:56;;;;;;;;;;;-3.30;99.90;;;;;;4955253;28;20450;-76
2021/12/25 06:26:21;;;;;;;;;;;-3.40;99.90;;;;;;4971512;28;19926;-76
2021/12/25 06:28:46;;;;;;;;;;;-3.30;99.90;;;;;;4956066;28;20396;-76
2021/12/25 06:31:12;;;;;;;;;;;-3.40;99.90;;;;;;4955648;28;19965;-76
2021/12/25 06:33:37;;;;;;;;;;;-3.40;99.90;;;;;;4971365;28;20032;-76
2021/12/25 06:36:03;;;;;;;;;;;-3.40;99.90;;;;;;4971492;28;20440;-76
2021/12/25 06:38:29;;;;;;;;;;;-3.40;99.90;;;;;;4955347;28;19926;-76
2021/12/25 06:40:54;;;;;;;;;;;-3.30;99.90;;;;;;4955638;28;20033;-76
2021/12/25 06:43:19;;;;;;;;;;;-3.40;99.90;;;;;;4971391;28;20382;-76
2021/12/25 06:45:45;;;;;;;;;;;-3.40;99.90;;;;;;4971262;28;19922;-76
2021/12/25 06:48:10;;;;;;;;;;;-3.40;99.90;;;;;;4971893;28;19929;-76
2021/12/25 06:50:36;;;;;;;;;;;-3.40;99.90;;;;;;4971096;28;19929;-76
2021/12/25 06:53:01;;;;;;;;;;;-3.40;99.90;;;;;;4971312;28;20013;-75
2021/12/25 06:55:27;;;;;;;;;;;-3.40;99.90;;;;;;4962997;28;20350;-76
2021/12/25 06:57:55;;;;;;;;;;;-3.50;99.90;;;;;;4966449;28;19957;-76
2021/12/25 07:00:21;;;;;;;;;;;-3.50;99.90;;;;;;4971634;28;20005;-79
2021/12/25 07:02:47;;;;;;;;;;;-3.50;99.90;;;;;;4955355;28;19922;-78
2021/12/25 07:05:12;;;;;;;;;;;-3.50;99.90;;;;;;4955007;28;19972;-78
2021/12/25 07:07:38;;;;;;;;;;;-3.50;99.90;;;;;;4955235;28;20413;-77
2021/12/25 07:10:04;;;;;;;;;;;-3.50;99.90;;;;;;4971632;28;20017;-77
2021/12/25 07:12:32;;;;;;;;;;;-3.60;99.90;;;;;;4971471;28;20338;-77
2021/12/25 07:14:57;;;;;;;;;;;-3.60;99.90;;;;;;4972189;28;19969;-76
2021/12/25 07:17:23;;;;;;;;;;;-3.60;99.90;;;;;;4978889;28;19984;-77
2021/12/25 07:19:48;;;;;;;;;;;-3.60;99.90;;;;;;4979262;28;19948;-77
2021/12/25 07:22:14;;;;;;;;;;;-3.60;99.90;;;;;;4974939;28;19970;-77
2021/12/25 07:24:39;;;;;;;;;;;-3.60;99.90;;;;;;4958461;28;19929;-77
2021/12/25 07:27:05;;;;;;;;;;;-3.60;99.90;;;;;;4990202;28;20512;-78
2021/12/25 07:29:31;;;;;;;;;;;-3.60;99.90;;;;;;4974639;28;19922;-78
2021/12/25 07:31:56;;;;;;;;;;;-3.70;99.90;;;;;;4974264;28;19929;-78
2021/12/25 07:34:22;;;;;;;;;;;-3.70;99.90;;;;;;4958335;28;20389;-78
2021/12/25 07:36:47;;;;;;;;;;;-3.70;99.90;;;;;;4963125;28;19925;-78
2021/12/25 07:39:13;;;;;;;;;;;-3.80;99.90;;;;;;4985715;28;19926;-78
2021/12/25 07:41:38;;;;;;;;;;;-3.80;99.90;;;;;;4961358;28;20016;-77
2021/12/25 07:44:04;;;;;;;;;;;-3.80;99.90;;;;;;4974015;28;20387;-77
2021/12/25 07:46:29;;;;;;;;;;;-3.70;99.90;;;;;;4957504;28;19952;-77
2021/12/25 07:48:55;;;;;;;;;;;-3.80;99.90;;;;;;4972124;28;19926;-78
2021/12/25 07:51:20;;;;;;;;;;;-3.80;99.90;;;;;;4956622;28;20338;-77
2021/12/25 07:53:46;;;;;;;;;;;-3.90;99.90;;;;;;4973683;28;19922;-78
2021/12/25 07:56:12;;;;;;;;;;;-3.90;99.90;;;;;;4974178;28;20327;-77
2021/12/25 07:58:38;;;;;;;;;;;-3.90;99.90;;;;;;4957658;28;20020;-77
2021/12/25 08:01:03;;;;;;;;;;;-3.90;99.90;;;;;;4974048;28;20418;-77
2021/12/25 08:03:29;;;;;;;;;;;-3.90;99.90;;;;;;4956696;28;19973;-78
2021/12/25 08:05:54;;;;;;;;;;;-3.90;99.90;;;;;;4956783;28;20013;-77
2021/12/25 08:08:20;;;;;;;;;;;-3.90;99.90;;;;;;4974199;28;19930;-77
2021/12/25 08:10:46;;;;;;;;;;;-3.90;99.90;;;;;;4973585;28;19969;-77
2021/12/25 08:13:13;;;;;;;;;;;-3.90;99.90;;;;;;4974174;28;20409;-76
2021/12/25 08:15:40;;;;;;;;;;;-3.90;99.90;;;;;;4974229;28;20017;-77
2021/12/25 08:18:06;;;;;;;;;;;-3.80;99.90;;;;;;4957425;28;19929;-78
2021/12/25 08:20:32;;;;;;;;;;;-3.90;99.90;;;;;;4973980;28;20303;-78
2021/12/25 08:22:57;;;;;;;;;;;-3.80;99.90;;;;;;4957724;28;20268;-78
2021/12/25 08:25:24;;;;;;;;;;;-3.80;99.90;;;;;;4973897;28;19945;-78
2021/12/25 08:27:49;;;;;;;;;;;-3.80;99.90;;;;;;4972041;28;20426;-78
2021/12/25 08:30:17;;;;;;;;;;;-3.80;99.90;;;;;;4972237;28;19922;-77
2021/12/25 08:32:42;;;;;;;;;;;-3.80;99.90;;;;;;4970666;28;19926;-77
2021/12/25 08:35:09;;;;;;;;;;;-3.70;99.90;;;;;;4971052;28;19922;-77
2021/12/25 08:37:35;;;;;;;;;;;-3.70;99.90;;;;;;4957149;28;19956;-79
2021/12/25 08:40:00;;;;;;;;;;;-3.70;99.90;;;;;;4957684;28;19926;-78
2021/12/25 08:42:26;;;;;;;;;;;-3.70;99.90;;;;;;4972519;28;20331;-76
2021/12/25 08:45:38;;;;;;;;;;;-3.70;99.90;;;;;;4973347;28;20020;-78
2021/12/25 08:47:38;;;;;;;;;;;-3.70;99.90;;;;;;4956114;28;20319;-77
2021/12/25 08:50:05;;;;;;;;;;;-3.60;99.90;;;;;;4971472;28;19930;-77
2021/12/25 08:52:30;;;;;;;;;;;-3.60;99.90;;;;;;4974033;28;19926;-77
2021/12/25 08:54:57;;;;;;;;;;;-3.60;99.90;;;;;;4971421;28;21206;-77
2021/12/25 08:57:23;;;;;;;;;;;-3.60;99.90;;;;;;4976585;28;19922;-78
2021/12/25 08:59:51;;;;;;;;;;;-3.50;99.90;;;;;;4973000;28;19932;-77
2021/12/25 09:02:18;;;;;;;;;;;-3.50;99.90;;;;;;4955421;28;20118;-77
2021/12/25 09:04:44;;;;;;;;;;;-3.50;99.90;;;;;;4972380;28;19961;-77
2021/12/25 09:07:10;;;;;;;;;;;-3.40;99.90;;;;;;4973281;28;20311;-77
2021/12/25 09:09:36;;;;;;;;;;;-3.40;99.90;;;;;;4972796;28;19928;-78
2021/12/25 09:12:01;;;;;;;;;;;-3.40;99.90;;;;;;4955984;28;20391;-77
2021/12/25 09:14:27;;;;;;;;;;;-3.30;99.90;;;;;;4972468;28;19949;-76
2021/12/25 09:16:52;;;;;;;;;;;-3.30;99.90;;;;;;4956235;28;19953;-77
2021/12/25 09:19:18;;;;;;;;;;;-3.30;99.90;;;;;;4956518;28;19954;-79
2021/12/25 09:21:44;;;;;;;;;;;-3.20;99.90;;;;;;4972366;28;19972;-77
2021/12/25 09:24:09;;;;;;;;;;;-3.30;99.90;;;;;;4956646;28;19922;-77
2021/12/25 09:26:35;;;;;;;;;;;-3.20;99.90;;;;;;4956283;28;19928;-78
2021/12/25 09:29:00;;;;;;;;;;;-3.20;99.90;;;;;;4956718;28;19969;-75
2021/12/25 09:31:26;;;;;;;;;;;-3.20;99.90;;;;;;4956142;28;19976;-77
2021/12/25 09:33:52;;;;;;;;;;;-3.10;99.90;;;;;;4979608;28;19989;-80
2021/12/25 09:36:18;;;;;;;;;;;-3.20;99.90;;;;;;4971819;28;20020;-79
2021/12/25 09:38:44;;;;;;;;;;;-3.10;99.90;;;;;;4955577;28;19926;-77
2021/12/25 09:41:10;;;;;;;;;;;-3.10;99.90;;;;;;4955959;28;20306;-77
2021/12/25 09:43:36;;;;;;;;;;;-3.00;99.90;;;;;;4955594;28;19922;-76
2021/12/25 09:46:02;;;;;;;;;;;-2.90;99.90;;;;;;4972244;28;19926;-78
2021/12/25 09:48:27;;;;;;;;;;;-2.70;99.90;;;;;;4956151;28;19922;-76
2021/12/25 09:50:54;;;;;;;;;;;-2.70;99.90;;;;;;4971719;28;19945;-78
2021/12/25 09:53:20;;;;;;;;;;;-2.60;99.90;;;;;;4956013;28;19930;-77
2021/12/25 09:55:46;;;;;;;;;;;-2.60;99.90;;;;;;4955948;28;19930;-77
2021/12/25 09:58:11;;;;;;;;;;;-2.50;99.20;;;;;;4971749;28;20423;-77
2021/12/25 10:00:39;;;;;;;;;;;-2.50;99.90;;;;;;4951375;28;19922;-77
2021/12/25 10:03:05;;;;;;;;;;;-2.50;99.90;;;;;;4950778;28;19968;-77
2021/12/25 10:05:30;;;;;;;;;;;-2.50;99.90;;;;;;4971891;28;19934;-78
2021/12/25 10:08:07;;;;;;;;;;;-2.50;99.90;;;;;;4971929;28;20330;-78
2021/12/25 10:10:37;;;;;;;;;;;-2.50;99.90;;;;;;4971968;28;19926;-79
2021/12/25 10:13:03;;;;;;;;;;;-2.50;99.90;;;;;;4971669;28;19934;-79
2021/12/25 10:15:28;;;;;;;;;;;-2.60;99.90;;;;;;4971564;28;19922;-76
2021/12/25 10:17:55;;;;;;;;;;;-2.50;99.90;;;;;;4972285;28;20310;-79
2021/12/25 10:20:28;;;;;;;;;;;-2.60;99.90;;;;;;4956018;28;19965;-76
2021/12/25 10:23:11;;;;;;;;;;;-2.50;99.90;;;;;;4955055;28;19922;-76
2021/12/25 10:25:47;;;;;;;;;;;-2.50;99.90;;;;;;4955759;28;19922;-79
2021/12/25 10:28:14;;;;;;;;;;;-2.60;99.90;;;;;;4955431;28;19922;-81
2021/12/25 10:30:59;;;;;;;;;;;-2.50;99.90;;;;;;4955912;28;19965;-78
2021/12/25 10:33:30;;;;;;;;;;;-2.50;99.90;;;;;;4955671;28;20397;-80
2021/12/25 10:35:58;;;;;;;;;;;-2.50;99.80;;;;;;4955275;28;19922;-77
2021/12/25 10:38:24;;;;;;;;;;;-2.40;99.90;;;;;;4971503;28;20371;-76
2021/12/25 10:41:06;;;;;;;;;;;-2.40;99.90;;;;;;4955562;28;19922;-76
2021/12/25 10:43:35;;;;;;;;;;;-2.30;99.90;;;;;;4971679;28;20394;-75
2021/12/25 10:46:01;;;;;;;;;;;-2.30;99.90;;;;;;4971179;28;19922;-78
2021/12/25 10:48:28;;;;;;;;;;;-2.20;98.80;;;;;;4954422;28;19923;-75
2021/12/25 10:50:54;;;;;;;;;;;-2.10;97.10;;;;;;4965607;28;19926;-76
2021/12/25 10:53:27;;;;;;;;;;;-2.10;98.70;;;;;;4992618;28;19948;-76
2021/12/25 10:56:03;;;;;;;;;;;-2.10;99.10;;;;;;4977308;28;19989;-77
2021/12/25 10:58:28;;;;;;;;;;;-2.00;99.90;;;;;;4981968;28;20275;-77
2021/12/25 11:00:55;;;;;;;;;;;-2.00;98.80;;;;;;4983170;28;19929;-76
2021/12/25 11:03:28;;;;;;;;;;;-1.90;96.60;;;;;;4990521;28;19925;-78
2021/12/25 11:05:54;;;;;;;;;;;-1.90;97.00;;;;;;4975636;28;19926;-79
2021/12/25 11:08:21;;;;;;;;;;;-1.90;94.10;;;;;;4966923;28;19922;-79
2021/12/25 11:10:58;;;;;;;;;;;-1.80;94.60;;;;;;4958963;28;19958;-78
2021/12/25 11:13:26;;;;;;;;;;;-1.80;95.40;;;;;;4959220;28;20294;-78
2021/12/25 11:16:01;;;;;;;;;;;-1.80;93.90;;;;;;4979199;28;19933;-78
2021/12/25 11:18:26;;;;;;;;;;;-1.80;97.30;;;;;;4974204;28;20013;-77
2021/12/25 11:20:52;;;;;;;;;;;-1.70;93.60;;;;;;4977417;28;19949;-81
2021/12/25 11:23:17;;;;;;;;;;;-1.60;92.90;;;;;;4958774;28;20298;-80
2021/12/25 11:25:44;;;;;;;;;;;-1.30;91.80;;;;;;4950350;28;19929;-80
2021/12/25 11:28:11;;;;;;;;;;;-1.10;92.10;;;;;;4958699;28;19922;-79
2021/12/25 11:30:38;;;;;;;;;;;-0.80;89.30;;;;;;4974689;28;19922;-80
2021/12/25 11:33:03;;;;;;;;;;;-0.60;91.70;;;;;;4958746;28;19930;-80
2021/12/25 11:35:33;;;;;;;;;;;-0.30;87.50;;;;;;4958339;28;19922;-79
2021/12/25 11:37:59;;;;;;;;;;;0.00;88.70;;;;;;4974395;28;19973;-79
2021/12/25 11:40:25;;;;;;;;;;;0.50;83.70;;;;;;4957991;28;19926;-80
2021/12/25 11:42:56;;;;;;;;;;;1.00;81.10;;;;;;4958334;28;20358;-80
2021/12/25 11:45:34;;;;;;;;;;;1.50;76.10;;;;;;4974619;28;19926;-80
2021/12/25 11:48:12;;;;;;;;;;;1.60;75.80;;;;;;4990978;28;19929;-80
2021/12/25 11:50:41;;;;;;;;;;;1.80;74.90;;;;;;4973800;28;20175;-80
2021/12/25 11:53:25;;;;;;;;;;;2.10;74.80;;;;;;4958103;28;20407;-80
2021/12/25 11:58:42;;;;;;;;;;;2.20;73.60;;;;;;4955224;29;20299;-80
2021/12/25 12:01:23;;;;;;;;;;;2.30;72.30;;;;;;4971429;28;19929;-78
2021/12/25 12:03:54;;;;;;;;;;;2.50;72.30;;;;;;4957787;28;19929;-79
2021/12/25 12:06:39;;;;;;;;;;;2.60;71.40;;;;;;4973607;28;19930;-79
2021/12/25 12:09:09;;;;;;;;;;;2.80;73.50;;;;;;4973661;28;19926;-80
2021/12/25 12:11:35;;;;;;;;;;;2.80;70.30;;;;;;4973894;28;19945;-80
2021/12/25 12:14:11;;;;;;;;;;;2.70;71.40;;;;;;4957729;28;19926;-79
2021/12/25 12:16:37;;;;;;;;;;;2.90;72.20;;;;;;4974135;28;20327;-80
2021/12/25 12:19:26;;;;;;;;;;;3.00;70.40;;;;;;4974122;28;20294;-80
2021/12/25 12:21:51;;;;;;;;;;;3.00;69.00;;;;;;4957355;28;19926;-81
2021/12/25 12:24:49;;;;;;;;;;;3.00;70.10;;;;;;4972728;28;19929;-80
2021/12/25 12:27:29;;;;;;;;;;;2.90;66.90;;;;;;4972784;28;19926;-80
2021/12/25 12:29:54;;;;;;;;;;;2.70;66.40;;;;;;4957766;28;19976;-80
2021/12/25 12:32:20;;;;;;;;;;;2.70;68.30;;;;;;4957363;28;19926;-80
2021/12/25 12:34:47;;;;;;;;;;;2.60;67.00;;;;;;4957372;28;19922;-80
2021/12/25 12:37:16;;;;;;;;;;;2.00;69.80;;;;;;4973650;28;19930;-80
2021/12/25 12:39:54;;;;;;;;;;;1.70;71.50;;;;;;4957119;28;20146;-80
2021/12/25 12:42:38;;;;;;;;;;;1.90;73.20;;;;;;4954111;28;19923;-80
2021/12/25 12:45:19;;;;;;;;;;;2.20;71.30;;;;;;4973158;28;20397;-80
2021/12/25 12:48:03;;;;;;;;;;;2.50;71.90;;;;;;4957521;28;19922;-81
2021/12/25 12:50:32;;;;;;;;;;;2.30;69.40;;;;;;4957138;28;20298;-81
2021/12/25 12:52:58;;;;;;;;;;;1.90;69.90;;;;;;4956816;28;20020;-80
2021/12/25 12:55:32;;;;;;;;;;;1.60;70.30;;;;;;4957109;28;19954;-80
2021/12/25 12:58:13;;;;;;;;;;;1.50;71.10;;;;;;4956969;28;19982;-79
2021/12/25 13:00:40;;;;;;;;;;;1.40;70.70;;;;;;4972004;28;19934;-79
2021/12/25 13:03:05;;;;;;;;;;;1.20;71.50;;;;;;4956494;28;19969;-79
2021/12/25 13:05:33;;;;;;;;;;;0.90;73.30;;;;;;4959842;28;20158;-79
2021/12/25 13:08:01;;;;;;;;;;;0.50;73.60;;;;;;4974081;28;20452;-79
2021/12/25 13:10:37;;;;;;;;;;;0.20;74.30;;;;;;4956868;28;19922;-79
2021/12/25 13:13:12;;;;;;;;;;;0.00;74.50;;;;;;4972363;28;19922;-79
2021/12/25 13:15:40;;;;;;;;;;;-0.20;78.50;;;;;;4956689;28;19980;-79
2021/12/25 13:18:06;;;;;;;;;;;-0.30;79.60;;;;;;4957159;28;19945;-79
2021/12/25 13:20:37;;;;;;;;;;;-0.40;79.80;;;;;;4972709;28;19926;-78
2021/12/25 13:23:05;;;;;;;;;;;-0.40;78.80;;;;;;4955524;28;19926;-79
2021/12/25 13:25:31;;;;;;;;;;;-0.40;77.00;;;;;;4970384;28;20342;-79
2021/12/25 13:27:58;;;;;;;;;;;-0.40;75.20;;;;;;4986878;28;19969;-79
2021/12/25 13:30:24;;;;;;;;;;;-0.50;77.40;;;;;;4975865;28;19928;-79
2021/12/25 13:32:49;;;;;;;;;;;-0.50;76.00;;;;;;4963360;28;20339;-78
2021/12/25 13:35:15;;;;;;;;;;;-0.60;78.50;;;;;;4972627;28;19922;-78
2021/12/25 13:37:41;;;;;;;;;;;-0.60;80.90;;;;;;4972304;28;19929;-79
2021/12/25 13:40:10;;;;;;;;;;;-0.60;81.30;;;;;;4955982;28;19926;-78
2021/12/25 13:42:36;;;;;;;;;;;-0.60;82.70;;;;;;4956013;28;19949;-79
2021/12/25 13:45:01;;;;;;;;;;;-0.60;80.90;;;;;;4972043;28;19930;-79
2021/12/25 13:47:27;;;;;;;;;;;-0.70;83.60;;;;;;4955740;28;19922;-79
2021/12/25 13:49:54;;;;;;;;;;;-0.70;82.30;;;;;;4956144;28;19968;-79
2021/12/25 13:52:20;;;;;;;;;;;-0.80;80.30;;;;;;4956104;28;19957;-79
2021/12/25 13:54:47;;;;;;;;;;;-0.90;82.60;;;;;;4971912;28;20405;-79
2021/12/25 13:57:14;;;;;;;;;;;-0.90;82.30;;;;;;4956123;28;20295;-82
2021/12/25 13:59:40;;;;;;;;;;;-1.00;85.00;;;;;;4972840;28;19925;-80
2021/12/25 14:02:05;;;;;;;;;;;-1.00;83.30;;;;;;4991912;28;19928;-79
2021/12/25 14:04:31;;;;;;;;;;;-0.90;80.80;;;;;;4964294;28;19926;-79
2021/12/25 14:06:57;;;;;;;;;;;-1.00;80.90;;;;;;4972308;28;19937;-78
2021/12/25 14:09:22;;;;;;;;;;;-1.10;84.70;;;;;;4973774;28;19922;-78
2021/12/25 14:11:49;;;;;;;;;;;-1.20;87.50;;;;;;4962831;28;20294;-79
2021/12/25 14:14:15;;;;;;;;;;;-1.20;85.00;;;;;;4956057;28;19926;-80
2021/12/25 14:16:41;;;;;;;;;;;-1.20;86.10;;;;;;4961617;28;20346;-78
2021/12/25 14:19:07;;;;;;;;;;;-1.20;84.20;;;;;;4960453;28;19926;-78
2021/12/25 14:21:33;;;;;;;;;;;-1.20;84.80;;;;;;4952503;28;20289;-78
2021/12/25 14:24:03;;;;;;;;;;;-1.20;84.40;;;;;;4955285;28;20219;-77
2021/12/25 14:26:28;;;;;;;;;;;-1.20;83.20;;;;;;4984514;28;19922;-76
2021/12/25 14:28:54;;;;;;;;;;;-1.30;84.90;;;;;;4988929;28;19988;-76
2021/12/25 14:31:19;;;;;;;;;;;-1.30;86.10;;;;;;4977060;28;20434;-77
2021/12/25 14:33:51;;;;;;;;;;;-1.30;90.10;;;;;;4982243;28;19930;-78
2021/12/25 14:36:16;;;;;;;;;;;-1.40;90.90;;;;;;4975381;28;20001;-78
2021/12/25 14:38:44;;;;;;;;;;;-1.40;89.20;;;;;;4974890;28;20021;-79
2021/12/25 14:41:10;;;;;;;;;;;-1.40;90.50;;;;;;4959496;28;19922;-77
2021/12/25 14:43:36;;;;;;;;;;;-1.50;92.30;;;;;;4975400;28;19945;-77
2021/12/25 14:46:03;;;;;;;;;;;-1.50;88.50;;;;;;4959203;28;19937;-77
2021/12/25 14:48:39;;;;;;;;;;;-1.60;90.80;;;;;;4957013;28;20379;-78
2021/12/25 14:51:06;;;;;;;;;;;-1.60;90.60;;;;;;4975147;28;19922;-77
2021/12/25 14:53:32;;;;;;;;;;;-1.60;90.90;;;;;;4969514;28;20021;-77
2021/12/25 14:56:01;;;;;;;;;;;-1.70;91.00;;;;;;4962125;28;20008;-78
2021/12/25 14:58:28;;;;;;;;;;;-1.70;92.00;;;;;;4974420;28;19960;-78
2021/12/25 15:01:22;;;;;;;;;;;-1.80;91.30;;;;;;4958691;28;19949;-78
2021/12/25 15:04:06;;;;;;;;;;;-1.80;92.00;;;;;;4989212;28;19964;-79
2021/12/25 15:06:33;;;;;;;;;;;-1.80;92.40;;;;;;4958885;28;20317;-79
2021/12/25 15:09:02;;;;;;;;;;;-1.90;93.80;;;;;;4974722;28;19929;-78
2021/12/25 15:11:30;;;;;;;;;;;-2.00;93.50;;;;;;4960520;28;20006;-80
2021/12/25 15:14:00;;;;;;;;;;;-2.10;94.70;;;;;;4939701;29;20025;-81
2021/12/25 15:16:45;;;;;;;;;;;-2.10;95.00;;;;;;4956321;28;19934;-79
2021/12/25 15:19:20;;;;;;;;;;;-2.10;94.90;;;;;;4969334;28;19926;-77
2021/12/25 15:21:46;;;;;;;;;;;-2.10;96.00;;;;;;4974417;28;20351;-78
2021/12/25 15:24:16;;;;;;;;;;;-2.20;95.30;;;;;;4958606;28;19953;-77
2021/12/25 15:26:44;;;;;;;;;;;-2.20;96.60;;;;;;4984983;28;20021;-78